sensor_id;sensor_type;location;lat;lon;timestamp;P1;durP1;ratioP1;P2;durP2;ratioP2
11957;SDS011;6039;52.576;13.348;2023-07-31T00:00:20;1.70;;;1.47;;
11957;SDS011;6039;52.576;13.348;2023-07-31T00:05:24;3.13;;;1.30;;
11957;SDS011;6039;52.576;13.348;2023-07-31T00:10:28;2.70;;;1.60;;
11957;SDS011;6039;52.576;13.348;2023-07-31T00:15:36;2.27;;;1.30;;
11957;SDS011;6039;52.576;13.348;2023-07-31T00:20:40;2.90;;;1.43;;
11957;SDS011;6039;52.576;13.348;2023-07-31T00:25:44;1.90;;;1.67;;
11957;SDS011;6039;52.576;13.348;2023-07-31T00:30:50;1.93;;;1.30;;
11957;SDS011;6039;52.576;13.348;2023-07-31T00:35:54;2.50;;;1.70;;
11957;SDS011;6039;52.576;13.348;2023-07-31T00:40:58;3.20;;;1.77;;
11957;SDS011;6039;52.576;13.348;2023-07-31T00:46:05;2.37;;;1.37;;
11957;SDS011;6039;52.576;13.348;2023-07-31T00:51:09;2.13;;;1.40;;
11957;SDS011;6039;52.576;13.348;2023-07-31T00:56:14;1.67;;;1.43;;
11957;SDS011;6039;52.576;13.348;2023-07-31T01:01:21;1.60;;;1.27;;
11957;SDS011;6039;52.576;13.348;2023-07-31T01:06:26;1.70;;;1.50;;
11957;SDS011;6039;52.576;13.348;2023-07-31T01:11:37;3.77;;;1.57;;
11957;SDS011;6039;52.576;13.348;2023-07-31T01:16:47;2.70;;;1.57;;
11957;SDS011;6039;52.576;13.348;2023-07-31T01:21:56;2.60;;;1.60;;
11957;SDS011;6039;52.576;13.348;2023-07-31T01:27:12;4.40;;;1.90;;
11957;SDS011;6039;52.576;13.348;2023-07-31T01:32:18;5.00;;;1.70;;
11957;SDS011;6039;52.576;13.348;2023-07-31T01:37:26;2.70;;;1.77;;
11957;SDS011;6039;52.576;13.348;2023-07-31T01:42:34;2.83;;;1.70;;
11957;SDS011;6039;52.576;13.348;2023-07-31T01:47:38;2.80;;;1.83;;
11957;SDS011;6039;52.576;13.348;2023-07-31T01:52:42;3.30;;;1.50;;
11957;SDS011;6039;52.576;13.348;2023-07-31T01:57:48;2.83;;;1.90;;
11957;SDS011;6039;52.576;13.348;2023-07-31T02:02:52;2.50;;;1.70;;
11957;SDS011;6039;52.576;13.348;2023-07-31T02:07:56;2.67;;;1.80;;
11957;SDS011;6039;52.576;13.348;2023-07-31T02:13:03;3.20;;;1.87;;
11957;SDS011;6039;52.576;13.348;2023-07-31T02:18:07;3.40;;;2.13;;
11957;SDS011;6039;52.576;13.348;2023-07-31T02:23:10;1.83;;;1.57;;
11957;SDS011;6039;52.576;13.348;2023-07-31T02:28:17;4.03;;;2.00;;
11957;SDS011;6039;52.576;13.348;2023-07-31T02:33:21;2.83;;;2.07;;
11957;SDS011;6039;52.576;13.348;2023-07-31T02:38:25;2.20;;;2.00;;
11957;SDS011;6039;52.576;13.348;2023-07-31T02:43:31;2.17;;;1.90;;
11957;SDS011;6039;52.576;13.348;2023-07-31T02:48:35;2.90;;;2.00;;
11957;SDS011;6039;52.576;13.348;2023-07-31T02:53:39;2.30;;;2.10;;
11957;SDS011;6039;52.576;13.348;2023-07-31T02:58:46;2.73;;;1.90;;
11957;SDS011;6039;52.576;13.348;2023-07-31T03:03:50;2.10;;;1.80;;
11957;SDS011;6039;52.576;13.348;2023-07-31T03:08:54;3.53;;;1.97;;
11957;SDS011;6039;52.576;13.348;2023-07-31T03:14:01;3.17;;;2.13;;
11957;SDS011;6039;52.576;13.348;2023-07-31T03:19:05;3.63;;;2.53;;
11957;SDS011;6039;52.576;13.348;2023-07-31T03:24:09;3.80;;;2.47;;
11957;SDS011;6039;52.576;13.348;2023-07-31T03:29:15;3.67;;;2.33;;
11957;SDS011;6039;52.576;13.348;2023-07-31T03:34:19;4.90;;;2.80;;
11957;SDS011;6039;52.576;13.348;2023-07-31T03:39:23;3.60;;;2.50;;
11957;SDS011;6039;52.576;13.348;2023-07-31T03:44:30;3.53;;;2.77;;
11957;SDS011;6039;52.576;13.348;2023-07-31T03:49:34;2.93;;;2.30;;
11957;SDS011;6039;52.576;13.348;2023-07-31T03:54:38;4.23;;;2.80;;
11957;SDS011;6039;52.576;13.348;2023-07-31T03:59:47;4.30;;;2.90;;
11957;SDS011;6039;52.576;13.348;2023-07-31T04:04:51;4.43;;;3.00;;
11957;SDS011;6039;52.576;13.348;2023-07-31T04:09:55;4.93;;;2.70;;
11957;SDS011;6039;52.576;13.348;2023-07-31T04:15:02;6.17;;;2.90;;
11957;SDS011;6039;52.576;13.348;2023-07-31T04:20:07;4.03;;;2.90;;
11957;SDS011;6039;52.576;13.348;2023-07-31T04:25:12;4.60;;;2.90;;
11957;SDS011;6039;52.576;13.348;2023-07-31T04:30:19;5.23;;;2.70;;
11957;SDS011;6039;52.576;13.348;2023-07-31T04:35:23;5.83;;;3.00;;
11957;SDS011;6039;52.576;13.348;2023-07-31T04:40:27;4.93;;;2.87;;
11957;SDS011;6039;52.576;13.348;2023-07-31T04:45:33;6.73;;;3.30;;
11957;SDS011;6039;52.576;13.348;2023-07-31T04:50:37;5.70;;;2.90;;
11957;SDS011;6039;52.576;13.348;2023-07-31T04:55:41;5.63;;;2.83;;
11957;SDS011;6039;52.576;13.348;2023-07-31T05:00:48;4.17;;;2.77;;
11957;SDS011;6039;52.576;13.348;2023-07-31T05:05:52;4.53;;;2.80;;
11957;SDS011;6039;52.576;13.348;2023-07-31T05:10:56;3.73;;;2.60;;
11957;SDS011;6039;52.576;13.348;2023-07-31T05:16:02;4.97;;;2.90;;
11957;SDS011;6039;52.576;13.348;2023-07-31T05:21:06;6.70;;;3.10;;
11957;SDS011;6039;52.576;13.348;2023-07-31T05:26:10;4.57;;;2.83;;
11957;SDS011;6039;52.576;13.348;2023-07-31T05:31:17;4.73;;;2.60;;
11957;SDS011;6039;52.576;13.348;2023-07-31T05:36:22;4.63;;;2.80;;
11957;SDS011;6039;52.576;13.348;2023-07-31T05:41:26;4.83;;;2.90;;
11957;SDS011;6039;52.576;13.348;2023-07-31T05:46:33;3.70;;;2.57;;
11957;SDS011;6039;52.576;13.348;2023-07-31T05:51:37;6.33;;;2.50;;
11957;SDS011;6039;52.576;13.348;2023-07-31T05:56:40;3.47;;;2.20;;
11957;SDS011;6039;52.576;13.348;2023-07-31T06:01:47;3.73;;;2.50;;
11957;SDS011;6039;52.576;13.348;2023-07-31T06:06:51;3.53;;;2.47;;
11957;SDS011;6039;52.576;13.348;2023-07-31T06:11:55;4.37;;;2.60;;
11957;SDS011;6039;52.576;13.348;2023-07-31T06:17:02;3.53;;;2.70;;
11957;SDS011;6039;52.576;13.348;2023-07-31T06:22:06;3.00;;;2.00;;
11957;SDS011;6039;52.576;13.348;2023-07-31T06:27:10;3.63;;;2.37;;
11957;SDS011;6039;52.576;13.348;2023-07-31T06:32:17;3.43;;;2.00;;
11957;SDS011;6039;52.576;13.348;2023-07-31T06:37:21;5.37;;;2.50;;
11957;SDS011;6039;52.576;13.348;2023-07-31T06:42:25;3.63;;;2.57;;
11957;SDS011;6039;52.576;13.348;2023-07-31T06:47:31;4.37;;;2.60;;
11957;SDS011;6039;52.576;13.348;2023-07-31T06:52:35;4.37;;;2.43;;
11957;SDS011;6039;52.576;13.348;2023-07-31T06:57:39;4.00;;;2.47;;
11957;SDS011;6039;52.576;13.348;2023-07-31T07:02:46;4.57;;;2.27;;
11957;SDS011;6039;52.576;13.348;2023-07-31T07:07:50;3.50;;;2.17;;
11957;SDS011;6039;52.576;13.348;2023-07-31T07:12:54;3.47;;;2.03;;
11957;SDS011;6039;52.576;13.348;2023-07-31T07:18:01;3.33;;;2.30;;
11957;SDS011;6039;52.576;13.348;2023-07-31T07:23:05;3.63;;;1.90;;
11957;SDS011;6039;52.576;13.348;2023-07-31T07:28:09;2.60;;;2.10;;
11957;SDS011;6039;52.576;13.348;2023-07-31T07:33:16;7.70;;;2.20;;
11957;SDS011;6039;52.576;13.348;2023-07-31T07:38:20;2.00;;;1.73;;
11957;SDS011;6039;52.576;13.348;2023-07-31T07:43:24;3.03;;;2.10;;
11957;SDS011;6039;52.576;13.348;2023-07-31T07:48:30;3.00;;;2.10;;
11957;SDS011;6039;52.576;13.348;2023-07-31T07:53:34;4.83;;;2.30;;
11957;SDS011;6039;52.576;13.348;2023-07-31T07:58:39;3.47;;;2.10;;
11957;SDS011;6039;52.576;13.348;2023-07-31T08:03:45;4.47;;;1.93;;
11957;SDS011;6039;52.576;13.348;2023-07-31T08:08:50;2.70;;;2.10;;
11957;SDS011;6039;52.576;13.348;2023-07-31T08:13:54;4.47;;;2.10;;
11957;SDS011;6039;52.576;13.348;2023-07-31T08:19:00;6.43;;;2.10;;
11957;SDS011;6039;52.576;13.348;2023-07-31T08:24:04;2.23;;;1.80;;
11957;SDS011;6039;52.576;13.348;2023-07-31T08:29:08;2.07;;;1.70;;
11957;SDS011;6039;52.576;13.348;2023-07-31T08:34:15;2.40;;;1.70;;
11957;SDS011;6039;52.576;13.348;2023-07-31T08:39:19;2.83;;;1.93;;
11957;SDS011;6039;52.576;13.348;2023-07-31T08:44:22;1.90;;;1.70;;
11957;SDS011;6039;52.576;13.348;2023-07-31T08:49:29;2.50;;;1.90;;
11957;SDS011;6039;52.576;13.348;2023-07-31T08:54:34;3.17;;;1.70;;
11957;SDS011;6039;52.576;13.348;2023-07-31T08:59:38;3.20;;;1.73;;
11957;SDS011;6039;52.576;13.348;2023-07-31T09:04:45;2.33;;;1.70;;
11957;SDS011;6039;52.576;13.348;2023-07-31T09:09:49;3.33;;;2.00;;
11957;SDS011;6039;52.576;13.348;2023-07-31T09:14:53;1.37;;;1.27;;
11957;SDS011;6039;52.576;13.348;2023-07-31T09:20:00;1.60;;;1.30;;
11957;SDS011;6039;52.576;13.348;2023-07-31T09:25:17;2.63;;;1.37;;
11957;SDS011;6039;52.576;13.348;2023-07-31T09:30:22;1.50;;;1.40;;
11957;SDS011;6039;52.576;13.348;2023-07-31T09:35:31;1.33;;;1.17;;
11957;SDS011;6039;52.576;13.348;2023-07-31T09:40:38;1.90;;;1.20;;
11957;SDS011;6039;52.576;13.348;2023-07-31T09:45:43;3.23;;;1.23;;
11957;SDS011;6039;52.576;13.348;2023-07-31T09:50:50;1.97;;;1.20;;
11957;SDS011;6039;52.576;13.348;2023-07-31T09:55:54;1.40;;;1.20;;
11957;SDS011;6039;52.576;13.348;2023-07-31T10:01:00;2.07;;;1.30;;
11957;SDS011;6039;52.576;13.348;2023-07-31T10:06:08;1.87;;;1.10;;
11957;SDS011;6039;52.576;13.348;2023-07-31T10:11:13;2.73;;;1.30;;
11957;SDS011;6039;52.576;13.348;2023-07-31T10:16:20;3.57;;;1.67;;
11957;SDS011;6039;52.576;13.348;2023-07-31T10:21:27;1.93;;;1.37;;
11957;SDS011;6039;52.576;13.348;2023-07-31T10:26:31;3.33;;;2.13;;
11957;SDS011;6039;52.576;13.348;2023-07-31T10:31:35;2.37;;;2.10;;
11957;SDS011;6039;52.576;13.348;2023-07-31T10:36:42;3.00;;;2.30;;
11957;SDS011;6039;52.576;13.348;2023-07-31T10:41:46;5.37;;;2.40;;
11957;SDS011;6039;52.576;13.348;2023-07-31T10:46:51;2.90;;;2.30;;
11957;SDS011;6039;52.576;13.348;2023-07-31T10:52:00;3.37;;;2.50;;
11957;SDS011;6039;52.576;13.348;2023-07-31T10:57:18;4.67;;;2.50;;
11957;SDS011;6039;52.576;13.348;2023-07-31T11:02:26;3.93;;;2.37;;
11957;SDS011;6039;52.576;13.348;2023-07-31T11:12:54;3.10;;;2.57;;
11957;SDS011;6039;52.576;13.348;2023-07-31T11:17:59;8.00;;;2.50;;
11957;SDS011;6039;52.576;13.348;2023-07-31T11:23:08;3.47;;;2.37;;
11957;SDS011;6039;52.576;13.348;2023-07-31T11:28:13;3.87;;;2.23;;
11957;SDS011;6039;52.576;13.348;2023-07-31T11:33:19;3.90;;;2.73;;
11957;SDS011;6039;52.576;13.348;2023-07-31T11:38:26;6.50;;;2.50;;
11957;SDS011;6039;52.576;13.348;2023-07-31T11:43:31;4.10;;;2.60;;
11957;SDS011;6039;52.576;13.348;2023-07-31T11:48:36;5.03;;;2.33;;
11957;SDS011;6039;52.576;13.348;2023-07-31T11:53:44;4.20;;;2.30;;
11957;SDS011;6039;52.576;13.348;2023-07-31T11:58:51;4.27;;;2.23;;
11957;SDS011;6039;52.576;13.348;2023-07-31T12:03:57;3.17;;;2.20;;
11957;SDS011;6039;52.576;13.348;2023-07-31T12:09:05;5.60;;;2.27;;
11957;SDS011;6039;52.576;13.348;2023-07-31T12:14:18;3.77;;;2.57;;
11957;SDS011;6039;52.576;13.348;2023-07-31T12:19:24;3.77;;;2.10;;
11957;SDS011;6039;52.576;13.348;2023-07-31T12:24:32;5.03;;;2.40;;
11957;SDS011;6039;52.576;13.348;2023-07-31T12:29:38;3.20;;;2.23;;
11957;SDS011;6039;52.576;13.348;2023-07-31T12:34:42;3.73;;;2.13;;
11957;SDS011;6039;52.576;13.348;2023-07-31T12:39:49;3.67;;;2.20;;
11957;SDS011;6039;52.576;13.348;2023-07-31T12:44:52;3.40;;;2.33;;
11957;SDS011;6039;52.576;13.348;2023-07-31T12:49:57;4.33;;;2.40;;
11957;SDS011;6039;52.576;13.348;2023-07-31T12:55:04;3.57;;;2.20;;
11957;SDS011;6039;52.576;13.348;2023-07-31T13:00:11;5.03;;;2.40;;
11957;SDS011;6039;52.576;13.348;2023-07-31T13:05:16;4.10;;;2.23;;
11957;SDS011;6039;52.576;13.348;2023-07-31T13:10:23;2.93;;;2.17;;
11957;SDS011;6039;52.576;13.348;2023-07-31T13:15:27;4.37;;;2.40;;
11957;SDS011;6039;52.576;13.348;2023-07-31T13:20:31;3.77;;;2.27;;
11957;SDS011;6039;52.576;13.348;2023-07-31T13:25:37;4.30;;;2.10;;
11957;SDS011;6039;52.576;13.348;2023-07-31T13:30:41;3.37;;;2.40;;
11957;SDS011;6039;52.576;13.348;2023-07-31T13:35:46;3.10;;;2.17;;
11957;SDS011;6039;52.576;13.348;2023-07-31T13:40:52;4.50;;;2.13;;
11957;SDS011;6039;52.576;13.348;2023-07-31T13:45:56;4.40;;;2.13;;
11957;SDS011;6039;52.576;13.348;2023-07-31T13:51:06;3.07;;;2.03;;
11957;SDS011;6039;52.576;13.348;2023-07-31T13:56:12;2.90;;;2.10;;
11957;SDS011;6039;52.576;13.348;2023-07-31T14:01:16;3.17;;;1.90;;
11957;SDS011;6039;52.576;13.348;2023-07-31T14:06:20;3.90;;;2.00;;
11957;SDS011;6039;52.576;13.348;2023-07-31T14:11:27;3.30;;;2.13;;
11957;SDS011;6039;52.576;13.348;2023-07-31T14:16:31;4.23;;;2.33;;
11957;SDS011;6039;52.576;13.348;2023-07-31T14:21:35;2.70;;;2.03;;
11957;SDS011;6039;52.576;13.348;2023-07-31T14:26:42;5.00;;;2.40;;
11957;SDS011;6039;52.576;13.348;2023-07-31T14:31:46;4.73;;;2.10;;
11957;SDS011;6039;52.576;13.348;2023-07-31T14:36:50;5.30;;;2.73;;
11957;SDS011;6039;52.576;13.348;2023-07-31T14:41:56;3.80;;;2.40;;
11957;SDS011;6039;52.576;13.348;2023-07-31T14:47:00;5.20;;;2.23;;
11957;SDS011;6039;52.576;13.348;2023-07-31T14:52:05;2.13;;;1.80;;
11957;SDS011;6039;52.576;13.348;2023-07-31T14:57:12;2.60;;;1.80;;
11957;SDS011;6039;52.576;13.348;2023-07-31T15:02:16;4.03;;;2.20;;
11957;SDS011;6039;52.576;13.348;2023-07-31T15:07:20;3.20;;;2.10;;
11957;SDS011;6039;52.576;13.348;2023-07-31T15:12:26;2.73;;;2.00;;
11957;SDS011;6039;52.576;13.348;2023-07-31T15:17:30;3.23;;;1.93;;
11957;SDS011;6039;52.576;13.348;2023-07-31T15:22:34;3.83;;;2.00;;
11957;SDS011;6039;52.576;13.348;2023-07-31T15:27:41;2.90;;;2.00;;
11957;SDS011;6039;52.576;13.348;2023-07-31T15:32:45;4.23;;;2.17;;
11957;SDS011;6039;52.576;13.348;2023-07-31T15:37:50;2.87;;;2.10;;
11957;SDS011;6039;52.576;13.348;2023-07-31T15:42:56;3.00;;;2.20;;
11957;SDS011;6039;52.576;13.348;2023-07-31T15:48:00;3.83;;;2.40;;
11957;SDS011;6039;52.576;13.348;2023-07-31T15:53:04;3.37;;;2.50;;
11957;SDS011;6039;52.576;13.348;2023-07-31T15:58:11;2.90;;;2.20;;
11957;SDS011;6039;52.576;13.348;2023-07-31T16:03:15;3.70;;;2.17;;
11957;SDS011;6039;52.576;13.348;2023-07-31T16:08:21;3.70;;;2.20;;
11957;SDS011;6039;52.576;13.348;2023-07-31T16:13:27;4.57;;;1.90;;
11957;SDS011;6039;52.576;13.348;2023-07-31T16:18:31;3.97;;;2.40;;
11957;SDS011;6039;52.576;13.348;2023-07-31T16:23:35;5.23;;;2.77;;
11957;SDS011;6039;52.576;13.348;2023-07-31T16:28:42;4.13;;;2.20;;
11957;SDS011;6039;52.576;13.348;2023-07-31T16:33:46;4.33;;;2.60;;
11957;SDS011;6039;52.576;13.348;2023-07-31T16:38:50;3.30;;;2.17;;
11957;SDS011;6039;52.576;13.348;2023-07-31T16:43:56;4.03;;;2.37;;
11957;SDS011;6039;52.576;13.348;2023-07-31T16:49:00;3.03;;;2.13;;
11957;SDS011;6039;52.576;13.348;2023-07-31T16:54:05;2.40;;;1.73;;
11957;SDS011;6039;52.576;13.348;2023-07-31T16:59:11;3.17;;;1.80;;
11957;SDS011;6039;52.576;13.348;2023-07-31T17:04:15;2.53;;;1.93;;
11957;SDS011;6039;52.576;13.348;2023-07-31T17:09:19;2.40;;;1.93;;
11957;SDS011;6039;52.576;13.348;2023-07-31T17:14:26;4.37;;;1.90;;
11957;SDS011;6039;52.576;13.348;2023-07-31T17:19:30;2.77;;;1.90;;
11957;SDS011;6039;52.576;13.348;2023-07-31T17:24:34;2.20;;;1.80;;
11957;SDS011;6039;52.576;13.348;2023-07-31T17:29:40;2.77;;;1.70;;
11957;SDS011;6039;52.576;13.348;2023-07-31T17:34:44;2.37;;;1.87;;
11957;SDS011;6039;52.576;13.348;2023-07-31T17:39:48;3.50;;;1.80;;
11957;SDS011;6039;52.576;13.348;2023-07-31T17:44:55;2.63;;;1.70;;
11957;SDS011;6039;52.576;13.348;2023-07-31T17:49:59;2.80;;;1.87;;
11957;SDS011;6039;52.576;13.348;2023-07-31T17:55:04;2.63;;;1.80;;
11957;SDS011;6039;52.576;13.348;2023-07-31T18:00:12;2.43;;;1.80;;
11957;SDS011;6039;52.576;13.348;2023-07-31T18:05:16;3.77;;;2.07;;
11957;SDS011;6039;52.576;13.348;2023-07-31T18:10:21;2.43;;;1.93;;
11957;SDS011;6039;52.576;13.348;2023-07-31T18:15:27;2.40;;;1.80;;
11957;SDS011;6039;52.576;13.348;2023-07-31T18:20:31;2.50;;;1.90;;
11957;SDS011;6039;52.576;13.348;2023-07-31T18:25:39;3.87;;;1.90;;
11957;SDS011;6039;52.576;13.348;2023-07-31T18:30:46;2.97;;;1.90;;
11957;SDS011;6039;52.576;13.348;2023-07-31T18:35:50;2.67;;;1.93;;
11957;SDS011;6039;52.576;13.348;2023-07-31T18:40:54;2.50;;;1.87;;
11957;SDS011;6039;52.576;13.348;2023-07-31T18:46:01;3.33;;;1.93;;
11957;SDS011;6039;52.576;13.348;2023-07-31T18:51:05;4.50;;;1.83;;
11957;SDS011;6039;52.576;13.348;2023-07-31T18:56:09;2.63;;;1.80;;
11957;SDS011;6039;52.576;13.348;2023-07-31T19:01:15;3.17;;;2.23;;
11957;SDS011;6039;52.576;13.348;2023-07-31T19:06:19;3.20;;;1.87;;
11957;SDS011;6039;52.576;13.348;2023-07-31T19:11:24;2.13;;;1.73;;
11957;SDS011;6039;52.576;13.348;2023-07-31T19:16:30;3.90;;;2.03;;
11957;SDS011;6039;52.576;13.348;2023-07-31T19:21:34;2.90;;;2.13;;
11957;SDS011;6039;52.576;13.348;2023-07-31T19:26:38;3.27;;;1.90;;
11957;SDS011;6039;52.576;13.348;2023-07-31T19:31:47;3.40;;;2.20;;
11957;SDS011;6039;52.576;13.348;2023-07-31T19:36:51;4.47;;;2.20;;
11957;SDS011;6039;52.576;13.348;2023-07-31T19:41:55;3.67;;;2.00;;
11957;SDS011;6039;52.576;13.348;2023-07-31T19:47:03;3.40;;;2.10;;
11957;SDS011;6039;52.576;13.348;2023-07-31T19:52:08;3.50;;;2.30;;
11957;SDS011;6039;52.576;13.348;2023-07-31T19:57:12;3.10;;;2.00;;
11957;SDS011;6039;52.576;13.348;2023-07-31T20:02:18;3.90;;;2.50;;
11957;SDS011;6039;52.576;13.348;2023-07-31T20:07:22;4.83;;;2.43;;
11957;SDS011;6039;52.576;13.348;2023-07-31T20:12:27;2.63;;;2.20;;
11957;SDS011;6039;52.576;13.348;2023-07-31T20:17:34;3.50;;;2.10;;
11957;SDS011;6039;52.576;13.348;2023-07-31T20:22:38;2.57;;;2.07;;
11957;SDS011;6039;52.576;13.348;2023-07-31T20:27:42;3.13;;;2.33;;
11957;SDS011;6039;52.576;13.348;2023-07-31T20:32:48;4.23;;;2.40;;
11957;SDS011;6039;52.576;13.348;2023-07-31T20:37:53;4.30;;;2.40;;
11957;SDS011;6039;52.576;13.348;2023-07-31T20:42:57;2.90;;;2.30;;
11957;SDS011;6039;52.576;13.348;2023-07-31T20:48:04;3.73;;;2.23;;
11957;SDS011;6039;52.576;13.348;2023-07-31T20:53:08;4.40;;;2.80;;
11957;SDS011;6039;52.576;13.348;2023-07-31T20:58:12;4.43;;;2.67;;
11957;SDS011;6039;52.576;13.348;2023-07-31T21:03:19;6.27;;;2.90;;
11957;SDS011;6039;52.576;13.348;2023-07-31T21:08:23;3.90;;;2.60;;
11957;SDS011;6039;52.576;13.348;2023-07-31T21:13:27;6.20;;;2.47;;
11957;SDS011;6039;52.576;13.348;2023-07-31T21:18:34;5.43;;;2.50;;
11957;SDS011;6039;52.576;13.348;2023-07-31T21:23:38;4.00;;;2.50;;
11957;SDS011;6039;52.576;13.348;2023-07-31T21:28:42;3.60;;;2.40;;
11957;SDS011;6039;52.576;13.348;2023-07-31T21:33:48;4.20;;;2.50;;
11957;SDS011;6039;52.576;13.348;2023-07-31T21:38:52;5.47;;;2.43;;
11957;SDS011;6039;52.576;13.348;2023-07-31T21:43:57;5.07;;;2.90;;
11957;SDS011;6039;52.576;13.348;2023-07-31T21:49:04;5.37;;;2.90;;
11957;SDS011;6039;52.576;13.348;2023-07-31T21:54:08;4.30;;;2.67;;
11957;SDS011;6039;52.576;13.348;2023-07-31T21:59:12;3.67;;;2.70;;
11957;SDS011;6039;52.576;13.348;2023-07-31T22:04:18;3.50;;;2.60;;
11957;SDS011;6039;52.576;13.348;2023-07-31T22:09:22;6.40;;;2.77;;
11957;SDS011;6039;52.576;13.348;2023-07-31T22:14:26;3.57;;;2.60;;
11957;SDS011;6039;52.576;13.348;2023-07-31T22:19:33;6.17;;;3.07;;
11957;SDS011;6039;52.576;13.348;2023-07-31T22:24:37;4.13;;;2.73;;
11957;SDS011;6039;52.576;13.348;2023-07-31T22:29:41;6.30;;;3.17;;
11957;SDS011;6039;52.576;13.348;2023-07-31T22:34:48;6.33;;;3.13;;
11957;SDS011;6039;52.576;13.348;2023-07-31T22:39:52;5.07;;;2.60;;
11957;SDS011;6039;52.576;13.348;2023-07-31T22:44:56;4.83;;;3.13;;
11957;SDS011;6039;52.576;13.348;2023-07-31T22:50:02;4.90;;;2.57;;
11957;SDS011;6039;52.576;13.348;2023-07-31T22:55:07;5.83;;;3.00;;
11957;SDS011;6039;52.576;13.348;2023-07-31T23:00:13;4.33;;;2.87;;
11957;SDS011;6039;52.576;13.348;2023-07-31T23:05:20;8.13;;;4.57;;
11957;SDS011;6039;52.576;13.348;2023-07-31T23:10:25;3.93;;;2.80;;
11957;SDS011;6039;52.576;13.348;2023-07-31T23:15:29;3.77;;;2.97;;
11957;SDS011;6039;52.576;13.348;2023-07-31T23:20:36;4.20;;;2.67;;
11957;SDS011;6039;52.576;13.348;2023-07-31T23:25:40;5.47;;;3.03;;
11957;SDS011;6039;52.576;13.348;2023-07-31T23:30:44;5.03;;;2.73;;
11957;SDS011;6039;52.576;13.348;2023-07-31T23:35:51;4.30;;;2.80;;
11957;SDS011;6039;52.576;13.348;2023-07-31T23:40:55;3.97;;;2.77;;
11957;SDS011;6039;52.576;13.348;2023-07-31T23:45:59;3.77;;;2.63;;
11957;SDS011;6039;52.576;13.348;2023-07-31T23:51:05;6.07;;;2.97;;
11957;SDS011;6039;52.576;13.348;2023-07-31T23:56:09;6.90;;;2.87;;
